createdAt,value
2022-11-08T00:01:47.211Z,36.13
2022-11-08T00:04:16.100Z,33.72
2022-11-08T00:07:07.270Z,33.60
2022-11-08T00:09:52.960Z,33.38
2022-11-08T00:12:42.009Z,33.97
2022-11-08T00:15:13.286Z,32.85
2022-11-08T00:17:47.722Z,33.20
2022-11-08T00:20:18.987Z,33.33
2022-11-08T00:22:49.081Z,33.28
2022-11-08T00:25:18.092Z,32.35
2022-11-08T00:27:46.548Z,32.15
2022-11-08T00:33:00.784Z,33.20
2022-11-08T00:35:29.791Z,33.55
2022-11-08T00:37:59.966Z,33.17
2022-11-08T00:40:30.953Z,33.13
2022-11-08T00:43:02.269Z,33.97
2022-11-08T00:45:29.825Z,32.85
2022-11-08T00:47:58.919Z,30.23
2022-11-08T00:50:26.543Z,30.73
2022-11-08T00:52:55.583Z,32.08
2022-11-08T00:55:23.617Z,30.83
2022-11-08T00:57:59.647Z,30.27
2022-11-08T01:00:28.851Z,30.13
2022-11-08T01:03:20.404Z,30.95
2022-11-08T01:06:02.932Z,31.92
2022-11-08T01:08:33.353Z,31.42
2022-11-08T01:11:08.476Z,31.30
2022-11-08T01:13:36.205Z,31.70
2022-11-08T01:16:12.231Z,29.90
2022-11-08T01:18:40.133Z,30.50
2022-11-08T01:21:10.070Z,31.15
2022-11-08T01:23:40.035Z,32.15
2022-11-08T01:26:12.114Z,31.13
2022-11-08T01:28:39.633Z,29.70
2022-11-08T01:31:26.324Z,32.58
2022-11-08T01:33:56.764Z,32.65
2022-11-08T01:36:26.546Z,30.35
2022-11-08T01:38:57.600Z,30.42
2022-11-08T01:41:28.015Z,31.13
2022-11-08T01:44:02.127Z,31.73
2022-11-08T01:46:39.458Z,31.67
2022-11-08T01:49:51.219Z,32.58
2022-11-08T01:52:56.288Z,31.60
2022-11-08T01:55:42.235Z,33.75
2022-11-08T01:58:21.103Z,33.88
2022-11-08T02:00:51.076Z,34.53
2022-11-08T02:03:23.031Z,36.22
2022-11-08T02:05:53.412Z,34.70
2022-11-08T02:08:37.160Z,34.47
2022-11-08T02:11:10.098Z,32.78
2022-11-08T02:13:41.804Z,33.00
2022-11-08T02:16:18.165Z,34.72
2022-11-08T02:18:50.514Z,32.15
2022-11-08T02:21:55.159Z,33.17
2022-11-08T02:24:23.420Z,35.13
2022-11-08T02:26:54.950Z,34.78
2022-11-08T02:29:36.962Z,36.45
2022-11-08T02:32:09.468Z,34.95
2022-11-08T02:34:58.436Z,37.42
2022-11-08T02:37:28.096Z,31.80
2022-11-08T02:39:56.713Z,33.60
2022-11-08T02:42:26.888Z,34.42
2022-11-08T02:44:57.303Z,34.75
2022-11-08T02:47:28.349Z,36.35
2022-11-08T02:49:58.170Z,33.97
2022-11-08T02:52:25.683Z,36.88
2022-11-08T02:54:53.683Z,34.15
2022-11-08T02:57:21.975Z,36.22
2022-11-08T02:59:53.140Z,35.13
2022-11-08T03:02:23.210Z,42.72
2022-11-08T03:04:52.037Z,44.67
2022-11-08T03:07:24.524Z,45.00
2022-11-08T03:09:56.082Z,36.22
2022-11-08T03:12:26.943Z,36.50
2022-11-08T03:14:57.038Z,38.13
2022-11-08T03:17:26.401Z,40.72
2022-11-08T03:19:53.957Z,38.15
2022-11-08T03:22:25.775Z,38.03
2022-11-08T03:24:54.082Z,38.88
2022-11-08T03:27:26.255Z,39.47
2022-11-08T03:29:53.710Z,40.47
2022-11-08T03:32:24.834Z,40.17
2022-11-08T03:34:52.759Z,37.20
2022-11-08T03:37:26.414Z,36.70
2022-11-08T03:39:55.688Z,28.63
2022-11-08T03:42:27.119Z,36.65
2022-11-08T03:44:57.264Z,38.35
2022-11-08T03:47:27.328Z,36.20
2022-11-08T03:49:57.323Z,36.60
2022-11-08T03:52:28.235Z,38.25
2022-11-08T03:54:57.963Z,36.47
2022-11-08T03:57:25.756Z,36.38
2022-11-08T03:59:56.346Z,39.50
2022-11-08T04:02:25.910Z,37.72
2022-11-08T04:04:53.732Z,37.42
2022-11-08T04:07:25.375Z,36.40
2022-11-08T04:09:57.944Z,36.67
2022-11-08T04:12:46.209Z,37.63
2022-11-08T04:15:17.006Z,37.50
2022-11-08T04:18:10.187Z,36.55
2022-11-08T04:21:11.534Z,35.30
2022-11-08T04:23:39.616Z,35.35
2022-11-08T04:26:11.465Z,34.67
2022-11-08T04:28:45.919Z,34.00
2022-11-08T04:31:20.686Z,33.13
2022-11-08T04:33:51.257Z,34.17
2022-11-08T04:36:20.081Z,33.92
2022-11-08T04:38:57.164Z,33.60
2022-11-08T04:41:27.558Z,34.90
2022-11-08T04:43:58.058Z,34.03
2022-11-08T04:46:31.279Z,36.65
2022-11-08T04:49:04.165Z,36.65
2022-11-08T04:51:34.560Z,35.10
2022-11-08T04:54:09.016Z,34.90
2022-11-08T04:56:39.554Z,36.70
2022-11-08T04:59:12.019Z,36.17
2022-11-08T05:01:41.596Z,34.38
2022-11-08T05:04:12.171Z,36.88
2022-11-08T05:07:02.704Z,34.38
2022-11-08T05:09:35.169Z,33.92
2022-11-08T05:12:05.985Z,33.30
2022-11-08T05:14:37.430Z,34.78
2022-11-08T05:17:07.969Z,34.50
2022-11-08T05:19:59.316Z,33.95
2022-11-08T05:22:46.871Z,33.42
2022-11-08T05:25:16.196Z,35.42
2022-11-08T05:27:46.404Z,35.25
2022-11-08T05:30:19.389Z,34.97
2022-11-08T05:33:10.132Z,34.50
2022-11-08T05:35:41.362Z,32.00
2022-11-08T05:38:12.425Z,32.17
2022-11-08T05:40:44.654Z,33.13
2022-11-08T05:43:15.393Z,30.83
2022-11-08T05:45:49.059Z,35.03
2022-11-08T05:48:18.060Z,31.80
2022-11-08T05:50:51.227Z,32.03
2022-11-08T05:53:22.446Z,33.05
2022-11-08T05:56:10.566Z,31.58
2022-11-08T05:58:41.507Z,30.58
2022-11-08T06:01:18.117Z,34.33
2022-11-08T06:03:51.784Z,33.60
2022-11-08T06:06:28.403Z,31.70
2022-11-08T06:08:58.456Z,33.80
2022-11-08T06:11:29.899Z,35.63
2022-11-08T06:14:00.507Z,33.42
2022-11-08T06:16:31.669Z,31.30
2022-11-08T06:18:59.102Z,32.75
2022-11-08T06:21:29.050Z,30.48
2022-11-08T06:23:58.263Z,34.88
2022-11-08T06:26:30.478Z,38.58
2022-11-08T06:28:59.730Z,35.40
2022-11-08T06:31:27.902Z,34.78
2022-11-08T06:33:55.930Z,34.08
2022-11-08T06:36:24.491Z,35.90
2022-11-08T06:38:55.845Z,37.00
2022-11-08T06:41:23.781Z,37.47
2022-11-08T06:43:52.443Z,39.20
2022-11-08T06:46:20.185Z,36.35
2022-11-08T06:48:49.324Z,36.38
2022-11-08T06:51:20.720Z,35.25
2022-11-08T06:53:54.961Z,37.15
2022-11-08T06:56:23.025Z,38.63
2022-11-08T06:58:54.211Z,40.08
2022-11-08T07:01:25.664Z,39.53
2022-11-08T07:03:55.452Z,42.53
2022-11-08T07:06:23.023Z,38.25
2022-11-08T07:08:54.620Z,37.33
2022-11-08T07:11:26.402Z,37.60
2022-11-08T07:13:54.189Z,36.65
2022-11-08T07:16:25.779Z,35.80
2022-11-08T07:19:00.383Z,34.97
2022-11-08T07:21:30.525Z,35.10
2022-11-08T07:24:01.598Z,37.95
2022-11-08T07:26:31.067Z,40.42
2022-11-08T07:28:59.090Z,44.38
2022-11-08T07:31:30.153Z,41.33
2022-11-08T07:33:58.067Z,40.15
2022-11-08T07:36:31.476Z,38.00
2022-11-08T07:39:06.317Z,39.13
2022-11-08T07:41:38.972Z,38.15
2022-11-08T07:44:07.843Z,39.33
2022-11-08T07:46:40.607Z,36.65
2022-11-08T07:49:09.116Z,37.42
2022-11-08T07:51:50.074Z,37.20
2022-11-08T07:54:19.737Z,38.47
2022-11-08T07:56:50.996Z,39.58
2022-11-08T07:59:21.632Z,36.25
2022-11-08T08:01:51.532Z,37.10
2022-11-08T08:04:20.566Z,36.90
2022-11-08T08:06:52.630Z,38.17
2022-11-08T08:09:23.916Z,35.95
2022-11-08T08:11:57.089Z,35.67
2022-11-08T08:14:25.115Z,36.58
2022-11-08T08:16:53.709Z,35.60
2022-11-08T08:19:23.371Z,33.20
2022-11-08T08:21:52.400Z,35.22
2022-11-08T08:24:22.085Z,34.33
2022-11-08T08:26:51.861Z,33.33
2022-11-08T08:29:19.285Z,33.85
2022-11-08T08:34:30.168Z,34.13
2022-11-08T08:36:58.278Z,33.72
2022-11-08T08:39:31.477Z,32.88
2022-11-08T08:42:01.679Z,34.20
2022-11-08T08:44:32.434Z,35.47
2022-11-08T08:47:03.597Z,34.47
2022-11-08T08:49:34.428Z,33.00
2022-11-08T08:52:06.543Z,34.45
2022-11-08T08:54:34.082Z,36.55
2022-11-08T08:57:04.680Z,36.00
2022-11-08T09:02:26.957Z,37.90
2022-11-08T09:04:54.263Z,36.50
2022-11-08T09:07:23.536Z,35.35
2022-11-08T09:09:57.582Z,33.97
2022-11-08T09:12:25.944Z,34.13
2022-11-08T09:14:59.802Z,33.83
2022-11-08T09:20:13.255Z,33.72
2022-11-08T09:23:07.749Z,32.83
2022-11-08T09:25:37.825Z,33.67
2022-11-08T09:28:07.005Z,32.33
2022-11-08T09:30:35.154Z,32.85
2022-11-08T09:33:04.126Z,34.20
2022-11-08T09:35:37.169Z,35.92
2022-11-08T09:38:08.805Z,34.13
2022-11-08T09:41:09.048Z,33.75
2022-11-08T09:44:07.891Z,33.47
2022-11-08T09:46:59.566Z,32.78
2022-11-08T09:49:59.617Z,31.63
2022-11-08T09:52:31.363Z,30.55
2022-11-08T09:55:35.149Z,35.08
2022-11-08T09:58:12.456Z,34.45
2022-11-08T10:00:41.480Z,29.88
2022-11-08T10:03:17.367Z,31.40
2022-11-08T10:06:33.363Z,30.30
2022-11-08T10:09:38.569Z,30.42
2022-11-08T10:12:43.750Z,31.63
2022-11-08T10:15:55.908Z,31.63
2022-11-08T10:18:57.881Z,33.08
2022-11-08T10:22:00.775Z,31.50
2022-11-08T10:25:10.908Z,30.85
2022-11-08T10:27:46.487Z,30.98
2022-11-08T10:30:27.717Z,29.70
2022-11-08T10:33:01.023Z,29.17
2022-11-08T10:35:46.977Z,28.80
2022-11-08T10:38:34.327Z,29.23
2022-11-08T10:41:25.241Z,28.55
2022-11-08T10:44:24.274Z,32.58
2022-11-08T10:47:07.153Z,32.05
2022-11-08T10:49:42.933Z,32.67
2022-11-08T10:52:30.526Z,32.15
2022-11-08T10:55:02.365Z,29.75
2022-11-08T10:57:47.635Z,32.95
2022-11-08T11:00:37.674Z,30.17
2022-11-08T11:03:14.275Z,27.70
2022-11-08T11:06:01.464Z,27.63
2022-11-08T11:08:32.228Z,29.77
2022-11-08T11:11:31.402Z,35.42
2022-11-08T11:14:35.831Z,40.00
2022-11-08T11:17:16.496Z,47.40
2022-11-08T11:20:03.145Z,36.60
2022-11-08T11:22:35.154Z,34.60
2022-11-08T11:25:24.789Z,28.55
2022-11-08T11:28:00.579Z,29.15
2022-11-08T11:30:36.207Z,30.80
2022-11-08T11:33:26.886Z,30.23
2022-11-08T11:36:15.784Z,31.17
2022-11-08T11:39:25.809Z,31.50
2022-11-08T11:42:39.006Z,28.48
2022-11-08T11:45:35.933Z,29.10
2022-11-08T11:48:23.411Z,29.88
2022-11-08T11:50:56.344Z,28.15
2022-11-08T11:53:48.921Z,26.73
2022-11-08T11:56:52.450Z,25.08
2022-11-08T11:59:58.278Z,24.70
2022-11-08T12:02:56.683Z,23.52
2022-11-08T12:06:08.939Z,22.45
2022-11-08T12:09:11.295Z,22.88
2022-11-08T12:11:54.191Z,24.13
2022-11-08T12:14:39.441Z,25.10
2022-11-08T12:17:49.516Z,24.98
2022-11-08T12:20:30.566Z,26.13
2022-11-08T12:23:35.498Z,25.33
2022-11-08T12:26:43.148Z,25.83
2022-11-08T12:29:45.647Z,23.30
2022-11-08T12:32:44.717Z,24.85
2022-11-08T12:35:42.382Z,24.95
2022-11-08T12:38:56.427Z,23.23
2022-11-08T12:42:17.445Z,23.00
2022-11-08T12:45:18.653Z,24.02
2022-11-08T12:48:16.357Z,24.05
2022-11-08T12:51:12.846Z,23.90
2022-11-08T12:54:03.683Z,23.77
2022-11-08T12:57:01.476Z,22.90
2022-11-08T12:59:43.223Z,24.00
2022-11-08T13:02:23.338Z,25.00
2022-11-08T13:05:27.283Z,26.33
2022-11-08T13:08:27.956Z,25.30
2022-11-08T13:11:17.035Z,25.50
2022-11-08T13:13:56.071Z,23.02
2022-11-08T13:16:27.186Z,20.30
2022-11-08T13:19:09.038Z,18.88
2022-11-08T13:21:45.380Z,18.67
2022-11-08T13:24:43.370Z,18.50
2022-11-08T13:27:58.981Z,17.77
2022-11-08T13:30:50.208Z,14.10
2022-11-08T13:33:40.237Z,16.35
2022-11-08T13:36:29.666Z,16.15
2022-11-08T13:39:44.240Z,13.98
2022-11-08T13:42:24.292Z,15.50
2022-11-08T13:45:22.688Z,15.40
2022-11-08T13:47:55.820Z,13.90
2022-11-08T13:50:51.411Z,14.13
2022-11-08T13:53:29.203Z,15.32
2022-11-08T13:56:09.952Z,14.55
2022-11-08T13:58:49.278Z,16.77
2022-11-08T14:01:24.610Z,16.17
2022-11-08T14:07:05.309Z,16.25
2022-11-08T14:09:56.547Z,17.38
2022-11-08T14:13:04.651Z,16.83
2022-11-08T14:15:49.730Z,15.63
2022-11-08T14:18:35.324Z,15.30
2022-11-08T14:21:05.729Z,15.43
2022-11-08T14:23:47.379Z,17.13
2022-11-08T14:26:33.159Z,18.30
2022-11-08T14:29:03.359Z,16.05
2022-11-08T14:31:37.011Z,17.15
2022-11-08T14:34:05.855Z,16.23
2022-11-08T14:36:39.205Z,16.90
2022-11-08T14:39:27.797Z,18.80
2022-11-08T14:42:02.082Z,16.77
2022-11-08T14:44:31.001Z,17.77
2022-11-08T14:47:00.740Z,17.83
2022-11-08T14:49:42.591Z,17.30
2022-11-08T14:52:30.846Z,18.50
2022-11-08T14:55:25.926Z,18.67
2022-11-08T14:57:57.244Z,17.70
2022-11-08T15:00:27.335Z,17.85
2022-11-08T15:03:06.981Z,17.92
2022-11-08T15:05:53.998Z,18.63
2022-11-08T15:08:36.355Z,19.40
2022-11-08T15:11:12.206Z,20.55
2022-11-08T15:13:53.131Z,20.10
2022-11-08T15:16:20.764Z,19.50
2022-11-08T15:18:53.139Z,19.42
2022-11-08T15:21:33.497Z,20.00
2022-11-08T15:24:46.429Z,21.83
2022-11-08T15:27:19.454Z,20.42
2022-11-08T15:30:16.948Z,21.67
2022-11-08T15:32:48.391Z,22.90
2022-11-08T15:35:39.150Z,20.48
2022-11-08T15:38:22.275Z,22.02
2022-11-08T15:40:54.892Z,22.27
2022-11-08T15:43:46.044Z,22.98
2022-11-08T15:46:39.723Z,23.45
2022-11-08T15:49:19.398Z,23.05
2022-11-08T15:52:06.355Z,23.95
2022-11-08T15:54:37.988Z,23.17
2022-11-08T15:57:09.030Z,24.40
2022-11-08T15:59:40.489Z,24.75
2022-11-08T16:02:26.407Z,23.83
2022-11-08T16:04:57.102Z,27.55
2022-11-08T16:07:24.752Z,27.92
2022-11-08T16:09:59.314Z,28.38
2022-11-08T16:12:30.484Z,27.80
2022-11-08T16:15:01.068Z,28.17
2022-11-08T16:17:35.064Z,30.23
2022-11-08T16:20:16.252Z,30.95
2022-11-08T16:22:46.171Z,30.10
2022-11-08T16:25:17.144Z,30.10
2022-11-08T16:27:57.435Z,30.40
2022-11-08T16:30:29.934Z,31.70
2022-11-08T16:33:01.226Z,34.67
2022-11-08T16:35:33.527Z,34.22
2022-11-08T16:38:03.047Z,32.55
2022-11-08T16:40:35.205Z,35.42
2022-11-08T16:43:06.674Z,34.60
2022-11-08T16:46:03.924Z,36.45
2022-11-08T16:48:27.701Z,36.65
2022-11-08T16:51:03.274Z,34.67
2022-11-08T16:53:34.700Z,35.03
2022-11-08T16:56:05.682Z,35.78
2022-11-08T16:58:38.984Z,34.90
2022-11-08T17:01:15.291Z,33.33
2022-11-08T17:03:44.817Z,34.72
2022-11-08T17:06:18.642Z,33.58
2022-11-08T17:08:51.556Z,31.58
2022-11-08T17:11:24.601Z,32.97
2022-11-08T17:16:21.915Z,33.45
2022-11-08T17:18:53.238Z,33.58
2022-11-08T17:24:21.928Z,25.33
2022-11-08T17:26:53.723Z,33.60
2022-11-08T17:29:26.023Z,34.97
2022-11-08T17:31:57.396Z,50.92
2022-11-08T17:34:27.449Z,43.50
2022-11-08T17:36:56.080Z,52.70
2022-11-08T17:39:27.114Z,58.83
2022-11-08T17:41:55.043Z,61.92
2022-11-08T17:44:25.216Z,50.28
2022-11-08T17:46:57.740Z,47.72
2022-11-08T17:49:29.387Z,48.90
2022-11-08T17:51:59.010Z,62.35
2022-11-08T17:54:26.816Z,46.13
2022-11-08T17:56:55.772Z,40.95
2022-11-08T17:59:24.100Z,39.05
2022-11-08T18:01:54.290Z,37.42
2022-11-08T18:04:23.012Z,40.85
2022-11-08T18:06:54.048Z,39.08
2022-11-08T18:09:23.844Z,46.15
2022-11-08T18:11:52.761Z,38.25
2022-11-08T18:14:28.275Z,37.47
2022-11-08T18:17:03.014Z,37.17
2022-11-08T18:19:32.636Z,35.03
2022-11-08T18:22:07.622Z,35.00
2022-11-08T18:24:39.334Z,33.80
2022-11-08T18:27:09.329Z,32.38
2022-11-08T18:29:38.894Z,34.95
2022-11-08T18:32:14.453Z,36.28
2022-11-08T18:34:44.347Z,36.45
2022-11-08T18:37:15.593Z,36.30
2022-11-08T18:39:47.296Z,36.03
2022-11-08T18:42:17.015Z,34.28
2022-11-08T18:44:47.290Z,35.35
2022-11-08T18:47:18.698Z,34.25
2022-11-08T18:49:50.046Z,34.53
2022-11-08T18:52:20.643Z,36.78
2022-11-08T18:54:51.206Z,42.92
2022-11-08T18:57:23.274Z,39.13
2022-11-08T19:00:00.839Z,36.78
2022-11-08T19:02:31.750Z,35.28
2022-11-08T19:05:01.155Z,36.45
2022-11-08T19:07:34.184Z,37.63
2022-11-08T19:10:01.750Z,35.75
2022-11-08T19:12:30.138Z,36.70
2022-11-08T19:14:57.746Z,39.85
2022-11-08T19:17:30.164Z,36.25
2022-11-08T19:19:57.738Z,37.83
2022-11-08T19:22:32.343Z,37.13
2022-11-08T19:25:03.300Z,37.55
2022-11-08T19:27:39.191Z,35.45
2022-11-08T19:30:10.629Z,36.10
2022-11-08T19:32:38.978Z,36.20
2022-11-08T19:35:11.698Z,34.75
2022-11-08T19:37:41.244Z,38.63
2022-11-08T19:40:13.923Z,35.83
2022-11-08T19:42:48.479Z,39.75
2022-11-08T19:45:20.635Z,41.92
2022-11-08T19:47:51.633Z,39.30
2022-11-08T19:50:22.515Z,36.65
2022-11-08T19:52:54.742Z,36.38
2022-11-08T19:55:22.825Z,36.42
2022-11-08T19:57:53.925Z,35.53
2022-11-08T20:00:25.749Z,35.92
2022-11-08T20:02:59.693Z,33.97
2022-11-08T20:05:32.567Z,32.25
2022-11-08T20:08:06.767Z,22.80
2022-11-08T20:10:34.268Z,33.33
2022-11-08T20:13:04.727Z,31.30
2022-11-08T20:15:34.436Z,30.20
2022-11-08T20:18:08.747Z,33.95
2022-11-08T20:20:41.426Z,34.67
2022-11-08T20:23:19.866Z,32.92
2022-11-08T20:25:49.310Z,31.88
2022-11-08T20:28:20.636Z,31.02
2022-11-08T20:30:49.487Z,30.40
2022-11-08T20:33:21.082Z,30.90
2022-11-08T20:35:52.321Z,31.77
2022-11-08T20:38:24.410Z,30.00
2022-11-08T20:40:55.720Z,31.48
2022-11-08T20:43:37.645Z,29.80
2022-11-08T20:46:11.468Z,35.50
2022-11-08T20:48:43.635Z,35.65
2022-11-08T20:51:26.946Z,33.92
2022-11-08T20:53:58.507Z,30.90
2022-11-08T20:56:33.776Z,31.15
2022-11-08T20:59:03.406Z,37.30
2022-11-08T21:01:37.596Z,30.70
2022-11-08T21:07:59.591Z,40.47
2022-11-08T21:09:50.484Z,36.95
2022-11-08T21:12:22.163Z,35.30
2022-11-08T21:14:55.498Z,30.38
2022-11-08T21:17:25.611Z,35.33
2022-11-08T21:19:57.427Z,34.03
2022-11-08T21:22:29.027Z,35.38
2022-11-08T21:24:58.804Z,36.88
2022-11-08T21:27:30.111Z,36.22
2022-11-08T21:30:04.631Z,32.53
2022-11-08T21:32:32.391Z,30.42
2022-11-08T21:35:02.158Z,29.20
2022-11-08T21:37:33.977Z,32.60
2022-11-08T21:40:04.498Z,34.55
2022-11-08T21:42:38.022Z,35.53
2022-11-08T21:45:08.081Z,37.08
2022-11-08T21:47:36.018Z,33.95
2022-11-08T21:50:09.244Z,35.15
2022-11-08T21:52:37.949Z,36.83
2022-11-08T21:55:09.463Z,36.42
2022-11-08T21:57:39.122Z,38.53
2022-11-08T22:00:11.360Z,36.20
2022-11-08T22:02:44.250Z,35.50
2022-11-08T22:05:14.407Z,37.17
2022-11-08T22:07:45.194Z,35.25
2022-11-08T22:10:15.844Z,35.80
2022-11-08T22:12:46.663Z,33.97
2022-11-08T22:15:15.690Z,35.08
2022-11-08T22:18:14.464Z,37.60
2022-11-08T22:20:36.413Z,34.72
2022-11-08T22:23:10.811Z,36.95
2022-11-08T22:25:40.515Z,26.60
2022-11-08T22:28:10.011Z,36.78
2022-11-08T22:30:39.284Z,37.20
2022-11-08T22:33:08.121Z,40.72
2022-11-08T22:35:37.016Z,49.50
2022-11-08T22:38:15.652Z,43.88
2022-11-08T22:40:50.924Z,37.97
2022-11-08T22:43:22.716Z,38.90
2022-11-08T22:45:50.744Z,38.08
2022-11-08T22:48:25.475Z,39.35
2022-11-08T22:50:59.652Z,38.22
2022-11-08T22:53:29.380Z,55.17
2022-11-08T22:56:01.328Z,53.35
2022-11-08T22:58:32.957Z,57.72
2022-11-08T23:01:02.808Z,45.30
2022-11-08T23:03:33.774Z,44.80
2022-11-08T23:06:06.338Z,39.63
2022-11-08T23:08:42.586Z,38.13
2022-11-08T23:11:33.467Z,37.25
2022-11-08T23:14:23.631Z,51.13
2022-11-08T23:16:55.500Z,43.63
2022-11-08T23:19:44.423Z,39.35
2022-11-08T23:22:37.841Z,34.72
2022-11-08T23:25:08.702Z,34.97
2022-11-08T23:28:02.341Z,34.85
2022-11-08T23:30:51.500Z,36.08
2022-11-08T23:33:22.739Z,35.47
2022-11-08T23:36:16.887Z,34.72
2022-11-08T23:38:46.768Z,35.17
2022-11-08T23:41:36.823Z,35.55
2022-11-08T23:44:31.527Z,36.17
2022-11-08T23:47:03.633Z,34.72
2022-11-08T23:49:35.909Z,36.83
2022-11-08T23:52:04.606Z,35.70
2022-11-08T23:54:33.113Z,35.42
2022-11-08T23:57:03.367Z,37.45
2022-11-08T23:59:35.507Z,35.78
